Time;durP1;ratioP1;P1;durP2;ratioP2;P2;SDS_P1;SDS_P2;PMS_P1;PMS_P2;Temp;Humidity;BMP_temperature;BMP_pressure;BME280_temperature;BME280_humidity;BME280_pressure;Samples;Min_cycle;Max_cycle;Signal;HPM_P1;HPM_P2
2024/01/12 00:00:14;;;;;;;12.40;8.07;;;-3.50;99.90;;;;;;5007509;28;20104;-86
2024/01/12 00:02:40;;;;;;;10.63;7.30;;;-3.50;99.90;;;;;;5010696;28;20099;-85
2024/01/12 00:05:07;;;;;;;11.50;6.63;;;-3.50;99.90;;;;;;5005268;28;20025;-85
2024/01/12 00:07:32;;;;;;;9.05;7.82;;;-3.60;99.90;;;;;;5006702;28;20034;-85
2024/01/12 00:09:58;;;;;;;13.98;8.65;;;-3.60;99.90;;;;;;5002246;28;20110;-86
2024/01/12 00:12:23;;;;;;;8.35;7.55;;;-3.60;99.90;;;;;;5005255;28;20025;-86
2024/01/12 00:14:49;;;;;;;10.70;7.25;;;-3.60;99.90;;;;;;5006466;28;20022;-86
2024/01/12 00:17:18;;;;;;;7.72;6.93;;;-3.70;99.90;;;;;;5007397;28;20037;-86
2024/01/12 00:19:43;;;;;;;8.20;6.65;;;-3.70;99.90;;;;;;4999806;28;20022;-86
2024/01/12 00:22:09;;;;;;;10.27;7.80;;;-3.80;99.90;;;;;;5005783;28;20504;-86
2024/01/12 00:24:35;;;;;;;11.82;7.97;;;-3.80;99.90;;;;;;5009873;28;20022;-85
2024/01/12 00:27:00;;;;;;;11.75;7.68;;;-3.80;99.90;;;;;;5012384;28;20026;-86
2024/01/12 00:29:25;;;;;;;10.32;6.85;;;-3.80;99.90;;;;;;5005692;28;20022;-85
2024/01/12 00:31:51;;;;;;;9.73;7.82;;;-3.80;99.90;;;;;;5007015;28;20030;-85
2024/01/12 00:34:17;;;;;;;9.90;7.35;;;-3.90;99.90;;;;;;5006545;28;20483;-85
2024/01/12 00:36:42;;;;;;;10.65;7.53;;;-3.90;99.90;;;;;;5007223;28;20402;-86
2024/01/12 00:39:08;;;;;;;11.68;8.30;;;-3.90;99.90;;;;;;5008990;28;20544;-85
2024/01/12 00:41:33;;;;;;;9.23;7.57;;;-3.90;99.90;;;;;;5007958;28;20568;-85
2024/01/12 00:43:59;;;;;;;9.82;7.43;;;-3.90;99.90;;;;;;5007496;28;20030;-85
2024/01/12 00:46:25;;;;;;;12.77;8.38;;;-3.90;99.90;;;;;;5006393;28;20494;-85
2024/01/12 00:48:50;;;;;;;11.00;7.97;;;-4.00;99.90;;;;;;5004301;28;20030;-86
2024/01/12 00:51:16;;;;;;;9.55;7.38;;;-4.00;99.90;;;;;;4998485;28;20037;-85
2024/01/12 00:53:41;;;;;;;10.68;7.75;;;-4.00;99.90;;;;;;5007819;28;20034;-85
2024/01/12 00:56:07;;;;;;;12.10;9.07;;;-4.00;99.90;;;;;;5012259;28;20583;-86
2024/01/12 00:58:33;;;;;;;11.77;8.70;;;-4.10;99.90;;;;;;5010027;28;20018;-86
2024/01/12 01:00:59;;;;;;;11.85;7.93;;;-4.10;99.90;;;;;;5003473;28;20037;-85
2024/01/12 01:03:24;;;;;;;10.15;8.10;;;-4.10;99.90;;;;;;5005992;28;20033;-86
2024/01/12 01:05:50;;;;;;;10.65;8.40;;;-4.10;99.90;;;;;;5003361;28;20080;-85
2024/01/12 01:08:16;;;;;;;9.70;7.50;;;-4.10;99.90;;;;;;5004704;28;20058;-85
2024/01/12 01:10:43;;;;;;;10.80;8.15;;;-4.10;99.90;;;;;;5007294;28;20061;-85
2024/01/12 01:13:09;;;;;;;14.20;8.65;;;-4.10;99.90;;;;;;5001749;28;20014;-86
2024/01/12 01:15:35;;;;;;;10.70;7.75;;;-4.10;99.90;;;;;;5008733;28;20041;-85
2024/01/12 01:18:00;;;;;;;9.85;8.30;;;-4.10;99.90;;;;;;5001847;28;20029;-86
2024/01/12 01:20:26;;;;;;;11.13;7.95;;;-4.10;99.90;;;;;;5000148;28;20038;-85
2024/01/12 01:22:51;;;;;;;10.48;7.38;;;-4.20;99.90;;;;;;5007264;28;20037;-85
2024/01/12 01:25:18;;;;;;;9.27;8.10;;;-4.20;99.90;;;;;;5006305;28;20029;-87
2024/01/12 01:27:44;;;;;;;9.30;7.97;;;-4.20;99.90;;;;;;5010837;28;20030;-86
2024/01/12 01:30:10;;;;;;;11.75;9.32;;;-4.20;99.90;;;;;;5004663;28;20018;-87
2024/01/12 01:32:35;;;;;;;9.30;7.88;;;-4.30;99.90;;;;;;4999104;28;20021;-85
2024/01/12 01:35:02;;;;;;;10.40;8.13;;;-4.30;99.90;;;;;;5004156;28;20040;-85
2024/01/12 01:37:28;;;;;;;9.00;7.38;;;-4.40;99.90;;;;;;5001010;28;20022;-86
2024/01/12 01:39:53;;;;;;;9.65;7.53;;;-4.40;99.90;;;;;;5005934;28;20378;-86
2024/01/12 01:42:19;;;;;;;8.85;7.65;;;-4.40;99.90;;;;;;5005406;28;20029;-86
2024/01/12 01:44:44;;;;;;;10.95;7.75;;;-4.50;99.90;;;;;;5002211;28;20064;-85
2024/01/12 01:47:10;;;;;;;8.35;6.93;;;-4.50;99.90;;;;;;5010234;28;20335;-86
2024/01/12 01:49:36;;;;;;;11.65;8.45;;;-4.60;99.90;;;;;;5010153;28;20643;-86
2024/01/12 01:52:03;;;;;;;15.13;9.55;;;-4.50;99.90;;;;;;5001767;28;20089;-86
2024/01/12 01:54:29;;;;;;;16.13;10.57;;;-4.50;99.90;;;;;;5008921;28;20049;-85
2024/01/12 01:56:55;;;;;;;14.00;9.07;;;-4.50;99.90;;;;;;5004981;28;20027;-87
2024/01/12 01:59:21;;;;;;;10.30;8.27;;;-4.50;99.90;;;;;;5007431;28;20371;-86
2024/01/12 02:01:47;;;;;;;11.02;8.50;;;-4.50;99.90;;;;;;5007922;28;20025;-86
2024/01/12 02:04:14;;;;;;;12.50;8.23;;;-4.50;99.90;;;;;;5005266;28;20647;-89
2024/01/12 02:06:40;;;;;;;13.77;8.73;;;-4.50;99.90;;;;;;5010084;28;20056;-86
2024/01/12 02:09:06;;;;;;;12.82;8.88;;;-4.50;99.90;;;;;;5000420;28;20109;-86
2024/01/12 02:11:31;;;;;;;11.15;7.75;;;-4.50;99.90;;;;;;5002033;28;20022;-86
2024/01/12 02:13:57;;;;;;;10.32;7.80;;;-4.50;99.90;;;;;;5010706;28;20034;-86
2024/01/12 02:16:22;;;;;;;9.13;7.25;;;-4.50;99.90;;;;;;5002613;28;20464;-86
2024/01/12 02:18:48;;;;;;;10.63;7.80;;;-4.50;99.90;;;;;;5005065;28;20490;-86
2024/01/12 02:21:13;;;;;;;8.40;6.47;;;-4.50;99.90;;;;;;5008672;28;20093;-87
2024/01/12 02:23:39;;;;;;;10.38;7.25;;;-4.50;99.90;;;;;;5005381;28;20454;-85
2024/01/12 02:26:04;;;;;;;10.07;7.72;;;-4.50;99.90;;;;;;5001304;28;20672;-85
2024/01/12 02:28:31;;;;;;;9.57;7.18;;;-4.50;99.90;;;;;;5000640;28;20034;-85
2024/01/12 02:30:57;;;;;;;7.63;6.68;;;-4.60;99.90;;;;;;4999933;28;20038;-86
2024/01/12 02:33:22;;;;;;;9.07;6.60;;;-4.60;99.90;;;;;;5000825;28;20031;-87
2024/01/12 02:35:48;;;;;;;9.15;6.93;;;-4.60;99.90;;;;;;5003000;28;20029;-85
2024/01/12 02:38:13;;;;;;;8.68;6.38;;;-4.60;99.90;;;;;;5004114;28;20053;-86
2024/01/12 02:40:39;;;;;;;7.95;5.95;;;-4.60;99.90;;;;;;5006455;28;20483;-85
2024/01/12 02:43:06;;;;;;;8.70;6.25;;;-4.60;99.90;;;;;;5007245;28;20491;-86
2024/01/12 02:45:31;;;;;;;7.50;6.47;;;-4.60;99.90;;;;;;4997126;28;20035;-85
2024/01/12 02:47:57;;;;;;;9.10;6.72;;;-4.60;99.90;;;;;;4999215;28;20041;-86
2024/01/12 02:50:22;;;;;;;10.07;6.35;;;-4.70;99.90;;;;;;5002895;28;20025;-86
2024/01/12 02:52:48;;;;;;;6.78;5.97;;;-4.70;99.90;;;;;;4996584;28;20038;-87
2024/01/12 02:55:13;;;;;;;9.48;6.75;;;-4.70;99.90;;;;;;4997999;28;20026;-89
2024/01/12 02:57:39;;;;;;;7.97;5.70;;;-4.70;99.90;;;;;;4999965;28;20073;-86
2024/01/12 03:00:05;;;;;;;7.72;6.18;;;-4.80;99.90;;;;;;5000509;28;20038;-86
2024/01/12 03:02:31;;;;;;;7.90;6.75;;;-4.80;99.90;;;;;;5010461;28;20068;-86
2024/01/12 03:04:56;;;;;;;8.52;6.47;;;-4.80;99.90;;;;;;5009260;28;20057;-88
2024/01/12 03:07:22;;;;;;;7.88;6.70;;;-4.80;99.90;;;;;;5008370;28;20656;-87
2024/01/12 03:09:47;;;;;;;10.63;7.25;;;-4.90;99.90;;;;;;5006409;28;20026;-87
2024/01/12 03:12:13;;;;;;;7.75;6.18;;;-4.80;99.90;;;;;;5006968;28;20080;-86
2024/01/12 03:14:38;;;;;;;9.40;6.32;;;-4.80;99.90;;;;;;5002135;28;20089;-87
2024/01/12 03:17:04;;;;;;;7.35;5.72;;;-4.80;99.90;;;;;;5012802;28;20072;-87
2024/01/12 03:19:29;;;;;;;8.73;5.82;;;-4.80;99.90;;;;;;5007610;28;20022;-86
2024/01/12 03:21:55;;;;;;;8.93;5.85;;;-4.80;99.90;;;;;;5007470;28;20032;-86
2024/01/12 03:24:20;;;;;;;8.73;6.35;;;-4.80;99.90;;;;;;5004603;28;20038;-87
2024/01/12 03:26:46;;;;;;;8.15;6.68;;;-4.80;99.90;;;;;;5010440;28;20490;-87
2024/01/12 03:29:12;;;;;;;7.57;5.95;;;-4.80;99.90;;;;;;5003850;28;20026;-86
2024/01/12 03:31:38;;;;;;;7.97;5.78;;;-4.70;99.90;;;;;;5012855;28;20022;-86
2024/01/12 03:34:03;;;;;;;6.43;5.05;;;-4.70;99.90;;;;;;5010284;28;20030;-86
2024/01/12 03:36:29;;;;;;;10.00;6.07;;;-4.70;99.90;;;;;;5010692;28;20478;-88
2024/01/12 03:38:54;;;;;;;8.48;6.25;;;-4.70;99.90;;;;;;5010565;28;20455;-86
2024/01/12 03:41:21;;;;;;;8.45;6.20;;;-4.70;99.90;;;;;;5023039;28;20046;-86
2024/01/12 03:43:47;;;;;;;8.35;6.00;;;-4.70;99.90;;;;;;5010344;28;20049;-86
2024/01/12 03:46:12;;;;;;;11.82;7.25;;;-4.60;99.90;;;;;;5008873;28;20113;-87
2024/01/12 03:48:40;;;;;;;7.35;5.63;;;-4.60;99.90;;;;;;5003420;28;20583;-89
2024/01/12 03:51:05;;;;;;;10.77;6.50;;;-4.60;99.90;;;;;;5007751;28;20031;-85
2024/01/12 03:53:31;;;;;;;7.22;5.60;;;-4.60;99.90;;;;;;5007668;28;20030;-86
2024/01/12 03:55:56;;;;;;;7.00;5.45;;;-4.60;99.90;;;;;;5008732;28;20034;-86
2024/01/12 03:58:22;;;;;;;7.90;5.57;;;-4.60;99.90;;;;;;5009380;28;20076;-88
2024/01/12 04:00:47;;;;;;;6.47;5.35;;;-4.60;99.90;;;;;;5017328;28;20022;-86
2024/01/12 04:03:13;;;;;;;5.80;5.05;;;-4.60;99.90;;;;;;5006301;28;20394;-87
2024/01/12 04:05:39;;;;;;;7.10;5.78;;;-4.50;99.90;;;;;;5011682;28;20036;-86
2024/01/12 04:08:05;;;;;;;8.30;5.97;;;-4.50;99.90;;;;;;5008785;28;20026;-87
2024/01/12 04:10:30;;;;;;;9.88;6.93;;;-4.50;99.90;;;;;;5008041;28;20022;-86
2024/01/12 04:12:56;;;;;;;7.30;5.72;;;-4.50;99.90;;;;;;5009169;28;20045;-86
2024/01/12 04:15:22;;;;;;;8.43;6.30;;;-4.50;99.90;;;;;;5010477;28;20086;-87
2024/01/12 04:17:47;;;;;;;8.77;7.00;;;-4.50;99.90;;;;;;5008576;28;20018;-86
2024/01/12 04:20:13;;;;;;;6.97;6.25;;;-4.50;99.90;;;;;;5026643;28;20555;-89
2024/01/12 04:22:39;;;;;;;9.80;5.93;;;-4.50;99.90;;;;;;5016519;28;20022;-87
2024/01/12 04:25:05;;;;;;;8.88;6.32;;;-4.50;99.90;;;;;;5014123;28;20030;-87
2024/01/12 04:27:30;;;;;;;10.85;7.07;;;-4.50;99.90;;;;;;5005005;28;20091;-86
2024/01/12 04:29:56;;;;;;;8.73;6.38;;;-4.50;99.90;;;;;;5010717;28;20018;-86
2024/01/12 04:32:21;;;;;;;9.75;6.35;;;-4.50;99.90;;;;;;5004345;28;20512;-86
2024/01/12 04:34:47;;;;;;;9.00;6.95;;;-4.50;99.90;;;;;;5008642;28;20038;-86
2024/01/12 04:37:12;;;;;;;13.63;7.47;;;-4.50;99.90;;;;;;5003772;28;20109;-86
2024/01/12 04:39:40;;;;;;;8.45;6.13;;;-4.50;99.90;;;;;;5010706;28;20032;-86
2024/01/12 04:42:05;;;;;;;11.27;7.03;;;-4.50;99.90;;;;;;5011225;28;20018;-85
2024/01/12 04:44:31;;;;;;;9.90;6.68;;;-4.50;99.90;;;;;;5007275;28;20108;-86
2024/01/12 04:46:56;;;;;;;13.10;8.13;;;-4.40;99.90;;;;;;5013040;28;20132;-87
2024/01/12 04:49:22;;;;;;;11.30;7.03;;;-4.50;99.90;;;;;;5003475;28;20029;-86
2024/01/12 04:51:48;;;;;;;10.60;6.90;;;-4.40;99.90;;;;;;5012634;28;20025;-87
2024/01/12 04:54:13;;;;;;;13.10;7.95;;;-4.40;99.90;;;;;;5006794;28;20083;-86
2024/01/12 04:56:39;;;;;;;11.20;7.03;;;-4.40;99.90;;;;;;5010201;28;20026;-86
2024/01/12 04:59:04;;;;;;;10.82;7.78;;;-4.40;99.90;;;;;;5004058;28;20026;-86
2024/01/12 05:01:30;;;;;;;11.73;7.80;;;-4.30;99.90;;;;;;5005721;28;20030;-86
2024/01/12 05:03:55;;;;;;;9.23;6.45;;;-4.30;99.90;;;;;;5006326;28;20096;-87
2024/01/12 05:06:21;;;;;;;13.30;7.40;;;-4.30;99.90;;;;;;5003859;28;20037;-86
2024/01/12 05:08:46;;;;;;;9.60;6.53;;;-4.30;99.90;;;;;;5001694;28;20040;-86
2024/01/12 05:11:12;;;;;;;11.63;7.55;;;-4.30;99.90;;;;;;5007757;28;20030;-86
2024/01/12 05:13:37;;;;;;;11.77;7.47;;;-4.20;99.90;;;;;;4998741;28;20068;-87
2024/01/12 05:16:03;;;;;;;12.25;7.10;;;-4.20;99.90;;;;;;5008153;28;20759;-86
2024/01/12 05:18:28;;;;;;;13.05;7.53;;;-4.20;99.90;;;;;;5007552;28;20017;-87
2024/01/12 05:20:54;;;;;;;11.80;8.18;;;-4.10;99.90;;;;;;5005243;28;20022;-86
2024/01/12 05:23:20;;;;;;;18.00;7.50;;;-4.10;99.90;;;;;;5002586;28;20669;-86
2024/01/12 05:25:46;;;;;;;17.85;7.93;;;-4.10;99.90;;;;;;5001855;28;20437;-88
2024/01/12 05:28:11;;;;;;;12.98;7.90;;;-4.10;99.90;;;;;;4998675;28;20540;-86
2024/01/12 05:30:37;;;;;;;12.60;6.70;;;-4.10;99.90;;;;;;5007290;28;20030;-86
2024/01/12 05:33:02;;;;;;;12.73;6.95;;;-4.10;99.90;;;;;;5002893;28;20022;-87
2024/01/12 05:35:28;;;;;;;11.95;7.40;;;-4.00;99.90;;;;;;5008565;28;20580;-86
2024/01/12 05:37:55;;;;;;;11.80;7.13;;;-4.10;99.90;;;;;;5009959;28;20032;-86
2024/01/12 05:40:20;;;;;;;11.23;7.50;;;-4.00;99.90;;;;;;5006919;28;20030;-86
2024/01/12 05:42:46;;;;;;;10.48;6.80;;;-4.00;99.90;;;;;;5011608;28;20029;-86
2024/01/12 05:45:12;;;;;;;10.35;6.50;;;-4.00;99.90;;;;;;5009299;28;20370;-87
2024/01/12 05:47:38;;;;;;;8.35;6.50;;;-4.00;99.90;;;;;;5013761;28;20490;-88
2024/01/12 05:50:06;;;;;;;9.63;7.32;;;-4.00;99.90;;;;;;5005476;28;20105;-87
2024/01/12 05:52:32;;;;;;;10.18;6.72;;;-4.00;99.90;;;;;;5006453;28;20080;-87
2024/01/12 05:54:58;;;;;;;10.40;6.85;;;-4.00;99.90;;;;;;5004474;28;20022;-87
2024/01/12 05:57:23;;;;;;;10.15;6.30;;;-4.00;99.90;;;;;;5001756;28;20014;-88
2024/01/12 05:59:49;;;;;;;8.57;6.30;;;-3.90;99.90;;;;;;5002545;28;20763;-86
2024/01/12 06:02:15;;;;;;;9.50;6.50;;;-3.90;99.90;;;;;;5003325;28;20536;-87
2024/01/12 06:04:41;;;;;;;10.45;6.90;;;-3.90;99.90;;;;;;5002304;28;20636;-87
2024/01/12 06:07:07;;;;;;;11.45;7.03;;;-3.90;99.90;;;;;;5002752;28;20025;-86
2024/01/12 06:09:32;;;;;;;9.32;7.25;;;-3.90;99.90;;;;;;5014354;28;20048;-86
2024/01/12 06:11:58;;;;;;;13.13;7.55;;;-3.90;99.90;;;;;;5002654;28;20445;-87
2024/01/12 06:14:23;;;;;;;9.73;6.65;;;-3.90;99.90;;;;;;5004446;28;20026;-86
2024/01/12 06:16:49;;;;;;;10.45;6.80;;;-3.80;99.90;;;;;;5005893;28;20488;-86
2024/01/12 06:19:14;;;;;;;11.07;8.02;;;-3.90;99.90;;;;;;5001117;28;20083;-86
2024/01/12 06:21:41;;;;;;;13.45;9.38;;;-3.90;99.90;;;;;;5005736;28;20065;-87
2024/01/12 06:24:08;;;;;;;10.23;7.63;;;-3.90;99.90;;;;;;5002688;28;20426;-86
2024/01/12 06:26:33;;;;;;;11.55;7.25;;;-3.90;99.90;;;;;;5008086;28;20038;-86
2024/01/12 06:28:59;;;;;;;10.27;6.97;;;-3.80;99.90;;;;;;5007361;28;20060;-86
2024/01/12 06:31:31;;;;;;;20.55;7.60;;;-3.80;99.90;;;;;;5009261;28;20099;-86
2024/01/12 06:33:57;;;;;;;12.55;6.13;;;-3.80;99.90;;;;;;5001727;28;20457;-84
2024/01/12 06:36:23;;;;;;;9.73;5.85;;;-3.80;99.90;;;;;;4999866;28;20027;-83
2024/01/12 06:38:48;;;;;;;10.73;6.55;;;-3.80;99.90;;;;;;5007251;28;20084;-84
2024/01/12 06:41:14;;;;;;;8.30;6.10;;;-3.80;99.90;;;;;;5004143;28;20030;-84
2024/01/12 06:43:39;;;;;;;9.98;6.53;;;-3.80;99.90;;;;;;5005561;28;20108;-85
2024/01/12 06:46:05;;;;;;;14.10;6.60;;;-3.80;99.90;;;;;;5007533;28;20038;-84
2024/01/12 06:48:31;;;;;;;7.90;5.82;;;-3.80;99.90;;;;;;5002881;28;20041;-85
2024/01/12 06:50:57;;;;;;;9.80;6.18;;;-3.80;99.90;;;;;;5002805;28;20482;-85
2024/01/12 06:53:22;;;;;;;10.43;6.47;;;-3.80;99.90;;;;;;5008677;28;20033;-88
2024/01/12 06:55:48;;;;;;;9.82;6.32;;;-3.70;99.90;;;;;;5006568;28;20034;-86
2024/01/12 06:58:13;;;;;;;25.00;9.23;;;-3.80;99.90;;;;;;5007103;28;20080;-86
2024/01/12 07:00:39;;;;;;;9.57;6.45;;;-3.70;99.90;;;;;;5006579;28;20025;-87
2024/01/12 07:03:04;;;;;;;9.85;7.25;;;-3.70;99.90;;;;;;5002835;28;20037;-86
2024/01/12 07:05:30;;;;;;;10.38;6.88;;;-3.70;99.90;;;;;;5005670;28;20101;-87
2024/01/12 07:07:55;;;;;;;9.48;6.72;;;-3.70;99.90;;;;;;5000675;28;20178;-86
2024/01/12 07:10:21;;;;;;;11.00;6.32;;;-3.70;99.90;;;;;;5005401;28;20076;-88
2024/01/12 07:12:47;;;;;;;11.27;6.75;;;-3.60;99.90;;;;;;5002874;28;20048;-87
2024/01/12 07:15:13;;;;;;;14.90;7.60;;;-3.60;99.90;;;;;;5006207;28;20449;-87
2024/01/12 07:17:39;;;;;;;14.45;7.10;;;-3.60;99.90;;;;;;5008251;28;20064;-87
2024/01/12 07:20:06;;;;;;;13.65;7.68;;;-3.60;99.90;;;;;;5005348;28;20573;-86
2024/01/12 07:22:31;;;;;;;11.88;7.05;;;-3.50;99.90;;;;;;5002204;28;20037;-87
2024/01/12 07:24:57;;;;;;;12.98;7.55;;;-3.50;99.90;;;;;;5003451;28;20080;-87
2024/01/12 07:27:22;;;;;;;12.23;6.93;;;-3.60;99.90;;;;;;4998238;28;20053;-86
2024/01/12 07:29:48;;;;;;;11.60;7.70;;;-3.50;99.90;;;;;;5000616;28;20053;-87
2024/01/12 07:32:13;;;;;;;10.82;7.75;;;-3.50;99.90;;;;;;5002830;28;20041;-88
2024/01/12 07:34:39;;;;;;;13.55;7.40;;;-3.50;99.90;;;;;;4999847;28;20048;-87
2024/01/12 07:37:04;;;;;;;11.40;7.28;;;-3.40;99.90;;;;;;5002665;28;20014;-87
2024/01/12 07:39:30;;;;;;;12.57;7.95;;;-3.40;99.90;;;;;;5001311;28;20634;-86
2024/01/12 07:41:55;;;;;;;12.80;7.80;;;-3.40;99.90;;;;;;5002845;28;20022;-87
2024/01/12 07:44:21;;;;;;;13.23;8.05;;;-3.30;99.90;;;;;;5007326;28;20482;-87
2024/01/12 07:46:47;;;;;;;13.82;7.63;;;-3.30;99.90;;;;;;5002700;28;20022;-87
2024/01/12 07:49:13;;;;;;;14.35;8.75;;;-3.30;99.90;;;;;;5005254;28;20014;-87
2024/01/12 07:51:38;;;;;;;17.23;9.02;;;-3.20;99.90;;;;;;5008825;28;20666;-87
2024/01/12 07:54:04;;;;;;;14.10;8.45;;;-3.20;99.90;;;;;;5007428;28;20030;-88
2024/01/12 07:56:29;;;;;;;16.48;8.95;;;-3.20;99.90;;;;;;5003882;28;20377;-87
2024/01/12 07:58:57;;;;;;;16.75;9.13;;;-3.10;99.90;;;;;;5004848;28;20496;-88
2024/01/12 08:01:23;;;;;;;14.23;8.43;;;-3.10;99.90;;;;;;5005376;28;20017;-87
2024/01/12 08:03:48;;;;;;;13.55;9.15;;;-3.10;99.90;;;;;;5011342;28;20030;-89
2024/01/12 08:06:15;;;;;;;12.73;8.23;;;-3.10;99.90;;;;;;5008462;28;20040;-88
2024/01/12 08:08:40;;;;;;;13.93;9.38;;;-3.00;99.90;;;;;;5008030;28;20026;-87
2024/01/12 08:11:07;;;;;;;12.65;8.55;;;-2.90;99.90;;;;;;5006241;28;20023;-88
2024/01/12 08:13:32;;;;;;;12.98;7.88;;;-2.90;99.90;;;;;;5008477;28;20094;-87
2024/01/12 08:15:58;;;;;;;13.05;7.53;;;-2.90;99.90;;;;;;5008902;28;20046;-89
2024/01/12 08:18:23;;;;;;;11.98;7.10;;;-2.80;99.90;;;;;;5006435;28;20014;-88
2024/01/12 08:20:49;;;;;;;15.45;7.40;;;-2.80;99.90;;;;;;5010037;28;20022;-87
2024/01/12 08:23:15;;;;;;;12.40;7.63;;;-2.70;99.90;;;;;;5007635;28;20025;-87
2024/01/12 08:25:41;;;;;;;14.15;7.50;;;-2.70;99.90;;;;;;5002744;28;20104;-88
2024/01/12 08:28:07;;;;;;;13.10;6.95;;;-2.70;99.90;;;;;;5007995;28;20103;-87
2024/01/12 08:30:33;;;;;;;13.57;7.55;;;-2.60;99.90;;;;;;5006587;28;20108;-87
2024/01/12 08:32:59;;;;;;;13.18;7.38;;;-2.60;99.90;;;;;;4999190;28;20041;-88
2024/01/12 08:35:26;;;;;;;15.70;7.45;;;-2.50;99.90;;;;;;5003594;28;20022;-87
2024/01/12 08:37:51;;;;;;;17.35;8.48;;;-2.40;99.90;;;;;;5007375;28;20521;-88
2024/01/12 08:40:17;;;;;;;15.55;8.20;;;-2.40;99.90;;;;;;5007234;28;20069;-89
2024/01/12 08:42:43;;;;;;;17.00;9.27;;;-2.30;99.90;;;;;;5000743;28;20053;-88
2024/01/12 08:45:08;;;;;;;14.23;8.40;;;-2.30;99.90;;;;;;5004421;28;20505;-87
2024/01/12 08:47:34;;;;;;;15.77;9.55;;;-2.20;99.90;;;;;;5006893;28;20030;-87
2024/01/12 08:50:00;;;;;;;18.80;9.60;;;-2.20;99.90;;;;;;5004425;28;20105;-87
2024/01/12 08:52:26;;;;;;;24.60;11.63;;;-2.10;99.90;;;;;;5007275;28;20463;-88
2024/01/12 08:54:51;;;;;;;21.33;11.52;;;-2.10;99.90;;;;;;5009686;28;20027;-87
2024/01/12 08:57:17;;;;;;;33.50;16.98;;;-2.00;99.90;;;;;;5005250;28;20666;-90
2024/01/12 08:59:42;;;;;;;25.38;14.65;;;-2.00;99.90;;;;;;5005318;28;20018;-87
2024/01/12 09:02:08;;;;;;;18.15;9.85;;;-1.90;99.90;;;;;;5002547;28;20018;-88
2024/01/12 09:04:36;;;;;;;18.42;10.40;;;-1.80;99.90;;;;;;5006201;28;20036;-88
2024/01/12 09:07:02;;;;;;;15.20;8.30;;;-1.80;99.90;;;;;;5008309;28;20030;-88
2024/01/12 09:09:28;;;;;;;15.95;9.63;;;-1.70;99.90;;;;;;5007501;28;20101;-89
2024/01/12 09:11:54;;;;;;;16.13;8.68;;;-1.60;99.90;;;;;;5004216;28;20026;-88
2024/01/12 09:14:19;;;;;;;18.35;9.73;;;-1.60;99.90;;;;;;5002326;28;20053;-88
2024/01/12 09:16:45;;;;;;;13.27;8.23;;;-1.50;99.90;;;;;;5004024;28;20072;-88
2024/01/12 09:19:10;;;;;;;18.15;9.10;;;-1.50;99.90;;;;;;5007163;28;20026;-88
2024/01/12 09:21:38;;;;;;;14.70;8.13;;;-1.50;99.90;;;;;;5007697;28;20049;-87
2024/01/12 09:24:04;;;;;;;16.95;8.55;;;-1.50;99.90;;;;;;5010992;28;20525;-87
2024/01/12 09:26:30;;;;;;;15.52;7.57;;;-1.40;99.90;;;;;;5006811;28;20032;-88
2024/01/12 09:28:55;;;;;;;18.00;7.97;;;-1.30;99.90;;;;;;5002883;28;20030;-88
2024/01/12 09:31:21;;;;;;;16.80;7.88;;;-1.30;99.90;;;;;;5008355;28;20030;-87
2024/01/12 09:33:46;;;;;;;18.40;8.57;;;-1.30;99.90;;;;;;5002926;28;20022;-87
2024/01/12 09:36:12;;;;;;;23.17;11.68;;;-1.20;99.90;;;;;;5006798;28;20026;-87
2024/01/12 09:38:40;;;;;;;18.73;10.85;;;-1.10;99.90;;;;;;5002759;28;20029;-88
2024/01/12 09:41:08;;;;;;;19.20;10.15;;;-1.10;99.90;;;;;;5004687;28;20021;-88
2024/01/12 09:43:35;;;;;;;17.38;7.43;;;-1.10;99.90;;;;;;4999629;28;20037;-87
2024/01/12 09:46:04;;;;;;;19.42;10.02;;;-1.00;99.90;;;;;;5001691;28;20041;-88
2024/01/12 09:48:30;;;;;;;16.40;7.88;;;-1.00;99.90;;;;;;5004057;28;20383;-87
2024/01/12 09:50:58;;;;;;;13.68;7.95;;;-1.00;99.90;;;;;;4999655;28;20041;-87
2024/01/12 09:53:24;;;;;;;15.13;7.80;;;-1.00;99.90;;;;;;5000841;28;20402;-86
2024/01/12 09:55:49;;;;;;;16.90;8.73;;;-0.90;99.90;;;;;;5003910;28;20026;-87
2024/01/12 09:58:17;;;;;;;15.48;7.10;;;-0.90;99.90;;;;;;5001573;28;20030;-87
2024/01/12 10:00:44;;;;;;;12.88;6.10;;;-0.80;99.90;;;;;;5003095;28;20022;-87
2024/01/12 10:03:11;;;;;;;14.75;8.35;;;-0.80;99.90;;;;;;5005417;28;20029;-86
2024/01/12 10:05:37;;;;;;;13.70;6.90;;;-0.80;99.90;;;;;;5006281;28;20041;-88
2024/01/12 10:08:06;;;;;;;15.93;7.25;;;-0.70;99.90;;;;;;5004431;28;20398;-87
2024/01/12 10:10:32;;;;;;;13.15;8.30;;;-0.70;99.90;;;;;;5004192;28;20026;-86
2024/01/12 10:12:57;;;;;;;17.27;8.27;;;-0.70;99.90;;;;;;5013535;28;20019;-89
2024/01/12 10:15:23;;;;;;;13.82;7.30;;;-0.70;99.90;;;;;;5028682;28;20065;-89
2024/01/12 10:17:51;;;;;;;12.38;6.38;;;-0.60;99.90;;;;;;5027568;28;20457;-86
2024/01/12 10:20:17;;;;;;;15.10;7.75;;;-0.60;99.90;;;;;;5000988;28;20089;-86
2024/01/12 10:22:42;;;;;;;15.07;7.95;;;-0.50;99.90;;;;;;4997010;28;20030;-86
2024/01/12 10:25:08;;;;;;;16.65;8.35;;;-0.50;99.90;;;;;;5000823;28;20018;-87
2024/01/12 10:27:34;;;;;;;15.88;7.80;;;-0.50;99.90;;;;;;5003305;28;20294;-87
2024/01/12 10:29:59;;;;;;;16.05;8.05;;;-0.40;99.90;;;;;;5001618;28;20046;-87
2024/01/12 10:32:25;;;;;;;20.05;8.52;;;-0.40;99.90;;;;;;5005417;28;20084;-87
2024/01/12 10:34:53;;;;;;;20.13;8.52;;;-0.30;99.90;;;;;;4999695;28;20036;-89
2024/01/12 10:37:19;;;;;;;17.75;6.95;;;-0.30;99.90;;;;;;4997911;28;20034;-89
2024/01/12 10:39:49;;;;;;;19.48;8.68;;;-0.30;99.90;;;;;;5000978;28;20517;-87
2024/01/12 10:42:16;;;;;;;16.58;8.05;;;-0.30;99.90;;;;;;5000185;28;20026;-88
2024/01/12 10:44:43;;;;;;;16.38;8.38;;;-0.30;99.90;;;;;;5015151;28;20120;-88
2024/01/12 10:47:21;;;;;;;15.25;7.82;;;-0.20;99.90;;;;;;5011534;28;20067;-88
2024/01/12 10:49:50;;;;;;;16.27;7.22;;;-0.20;99.90;;;;;;5002041;28;20093;-89
2024/01/12 10:52:31;;;;;;;18.25;8.55;;;-0.20;99.90;;;;;;5002896;28;20060;-88
2024/01/12 10:55:04;;;;;;;19.58;8.50;;;-0.20;99.90;;;;;;5004389;28;20478;-88
2024/01/12 10:57:32;;;;;;;18.13;8.02;;;-0.20;99.90;;;;;;5004610;28;20030;-87
2024/01/12 10:59:58;;;;;;;15.63;7.93;;;-0.20;99.90;;;;;;5004161;28;20023;-88
2024/01/12 11:02:25;;;;;;;15.80;8.80;;;-0.20;99.90;;;;;;5002567;28;20041;-88
2024/01/12 11:04:50;;;;;;;15.15;7.85;;;-0.20;99.90;;;;;;5002661;28;20030;-88
2024/01/12 11:07:17;;;;;;;14.25;7.55;;;-0.20;99.90;;;;;;5002726;28;20088;-88
2024/01/12 11:09:43;;;;;;;17.45;8.18;;;-0.10;99.90;;;;;;5004110;28;20026;-89
2024/01/12 11:12:10;;;;;;;13.63;6.50;;;-0.10;99.90;;;;;;5005573;28;20031;-90
2024/01/12 11:14:38;;;;;;;12.95;8.05;;;-0.10;99.90;;;;;;4995613;28;20026;-87
2024/01/12 11:17:07;;;;;;;16.35;8.20;;;-0.10;99.90;;;;;;4999444;28;20186;-89
2024/01/12 11:19:34;;;;;;;17.27;9.43;;;-0.10;99.90;;;;;;4998729;28;20027;-88
2024/01/12 11:22:07;;;;;;;17.65;7.68;;;-0.10;99.90;;;;;;5005404;28;20030;-88
2024/01/12 11:24:37;;;;;;;14.98;7.72;;;-0.10;99.90;;;;;;5000430;28;20465;-88
2024/01/12 11:27:06;;;;;;;17.55;8.40;;;-0.10;99.90;;;;;;5000224;28;20021;-88
2024/01/12 11:29:35;;;;;;;13.65;7.22;;;0.00;99.90;;;;;;5005043;28;20026;-87
2024/01/12 11:32:05;;;;;;;15.25;7.60;;;0.00;99.90;;;;;;5004735;28;20398;-88
2024/01/12 11:34:37;;;;;;;18.17;7.97;;;0.00;99.90;;;;;;5004123;28;20416;-88
2024/01/12 11:37:07;;;;;;;13.13;6.80;;;0.00;99.90;;;;;;5006380;28;20092;-89
2024/01/12 11:39:37;;;;;;;22.00;8.43;;;0.10;99.90;;;;;;5006710;28;20034;-87
2024/01/12 11:42:03;;;;;;;20.17;11.23;;;0.10;99.90;;;;;;5009566;28;20107;-88
2024/01/12 11:44:29;;;;;;;16.05;8.60;;;0.10;99.90;;;;;;5010613;28;20108;-87
2024/01/12 11:46:55;;;;;;;16.38;8.20;;;0.20;99.90;;;;;;5012433;28;20148;-88
2024/01/12 11:49:22;;;;;;;20.73;8.50;;;0.20;99.90;;;;;;5010329;28;20080;-87
2024/01/12 11:51:47;;;;;;;171.55;66.43;;;0.20;99.90;;;;;;5006470;28;20026;-88
2024/01/12 11:54:13;;;;;;;39.13;23.23;;;0.20;99.90;;;;;;5005987;28;20027;-87
2024/01/12 11:56:39;;;;;;;18.63;8.77;;;0.30;99.90;;;;;;5009943;28;20017;-87
2024/01/12 11:59:04;;;;;;;12.63;7.13;;;0.30;99.90;;;;;;5005421;28;20401;-87
2024/01/12 12:01:31;;;;;;;14.13;7.78;;;0.30;99.90;;;;;;5010199;28;20025;-88
2024/01/12 12:03:57;;;;;;;14.75;7.53;;;0.40;99.90;;;;;;5009657;28;20030;-87
2024/01/12 12:06:23;;;;;;;17.88;7.55;;;0.40;99.90;;;;;;5004829;28;20114;-87
2024/01/12 12:08:50;;;;;;;17.10;7.93;;;0.40;99.90;;;;;;5008021;28;20104;-88
2024/01/12 12:11:15;;;;;;;16.50;8.75;;;0.40;99.90;;;;;;5004225;28;20113;-86
2024/01/12 12:13:41;;;;;;;19.65;8.90;;;0.50;99.90;;;;;;5007925;28;20121;-87
2024/01/12 12:16:08;;;;;;;17.73;9.05;;;0.50;99.90;;;;;;5003354;28;20019;-88
2024/01/12 12:18:34;;;;;;;20.23;10.05;;;0.50;99.90;;;;;;5003735;28;20029;-87
2024/01/12 12:21:00;;;;;;;12.48;7.93;;;0.50;99.90;;;;;;5003747;28;20718;-87
2024/01/12 12:23:25;;;;;;;12.23;7.47;;;0.60;99.90;;;;;;5004320;28;20025;-86
2024/01/12 12:25:52;;;;;;;14.32;7.88;;;0.60;99.90;;;;;;5008542;28;20042;-87
2024/01/12 12:28:18;;;;;;;20.35;8.35;;;0.60;99.90;;;;;;5001427;28;20079;-88
2024/01/12 12:30:43;;;;;;;19.20;9.13;;;0.70;99.90;;;;;;5011714;28;20022;-87
2024/01/12 12:33:10;;;;;;;13.15;8.13;;;0.70;99.90;;;;;;5010775;28;20886;-85